This is the latest recevied weather packets stored in our database for station/object C31FR-13. If no packets are shown the sender has not sent any weather packets the latest 1 day(s).
| Time | Temp. | Humidity | Pressure | Rain* | Wind** | Luminosity | Snow |
|---|---|---|---|---|---|---|---|
| 1778051463 | 9.44° C | 70% | 1011.5 hPa | - | - | - | - |
| 1778050562 | 9.44° C | 68% | 1011.6 hPa | - | - | - | - |
| 1778049664 | 8.89° C | 70% | 1011.6 hPa | - | - | - | - |
| 1778049363 | 8.89° C | 71% | 1011.6 hPa | - | - | - | - |
| 1778049062 | 8.89° C | 71% | 1011.6 hPa | - | - | - | - |
| 1778048762 | 8.89° C | 73% | 1011.6 hPa | - | - | - | - |
| 1778048463 | 8.89° C | 75% | 1011.5 hPa | - | - | - | - |
| 1778048163 | 8.89° C | 76% | 1011.5 hPa | - | - | - | - |
| 1778046663 | 7.78° C | 81% | 1011.5 hPa | - | - | - | - |
| 1778045163 | 8.33° C | 78% | 1011.3 hPa | - | - | - | - |
| 1778044863 | 8.33° C | 77% | 1011.2 hPa | - | - | - | - |
| 1778044263 | 7.78° C | 79% | 1011.2 hPa | - | - | - | - |
| 1778043663 | 7.22° C | 81% | 1011.1 hPa | - | - | - | - |
| 1778043362 | 7.78° C | 81% | 1011.1 hPa | - | - | - | - |
| 1778043062 | 7.78° C | 82% | 1011.1 hPa | - | - | - | - |
| 1778042463 | 7.22° C | 85% | 1011.1 hPa | - | - | - | - |
| 1778041564 | 8.33° C | 80% | 1011 hPa | - | - | - | - |
| 1778039463 | 8.33° C | 81% | 1010.7 hPa | - | - | - | - |
| 1778039163 | 8.89° C | 78% | 1010.8 hPa | - | - | - | - |
| 1778038562 | 8.89° C | 78% | 1010.8 hPa | - | - | - | - |
| 1778037963 | 9.44° C | 75% | 1010.8 hPa | - | - | - | - |
| 1778037363 | 8.89° C | 77% | 1010.8 hPa | - | - | - | - |
| 1778037063 | 8.89° C | 78% | 1010.9 hPa | - | - | - | - |
| 1778036467 | 9.44° C | 78% | 1010.8 hPa | - | - | - | - |
| 1778035263 | 8.33° C | 82% | 1010.9 hPa | - | - | - | - |
* Rain since midnight (hover to see other rain measurements)
** Current wind speed in m/s (hover to see current wind gust speed)